Time;durP1;ratioP1;P1;durP2;ratioP2;P2;SDS_P1;SDS_P2;PMS_P1;PMS_P2;Temp;Humidity;BMP_temperature;BMP_pressure;BME280_temperature;BME280_humidity;BME280_pressure;Samples;Min_cycle;Max_cycle;Signal;HPM_P1;HPM_P2
2022/04/13 08:00:09;;;;;;;7.38;5.10;;;15.60;99.90;;;;;;5070714;28;20542;-64
2022/04/13 08:02:36;;;;;;;5.93;4.60;;;14.80;99.90;;;;;;5070560;28;20165;-64
2022/04/13 08:05:02;;;;;;;15.25;5.30;;;14.90;99.90;;;;;;5070567;28;20165;-64
2022/04/13 08:07:27;;;;;;;8.13;5.53;;;14.90;99.90;;;;;;5070465;28;20184;-64
2022/04/13 08:09:53;;;;;;;13.00;4.90;;;14.90;99.90;;;;;;5070447;28;20172;-64
2022/04/13 08:12:18;;;;;;;12.55;5.38;;;15.00;99.90;;;;;;5070396;28;20175;-65
2022/04/13 08:14:46;;;;;;;7.43;4.93;;;15.10;99.90;;;;;;5070380;28;20562;-65
2022/04/13 08:17:13;;;;;;;10.35;5.40;;;15.10;99.90;;;;;;5070296;28;20529;-64
2022/04/13 08:19:38;;;;;;;11.40;4.57;;;15.20;99.90;;;;;;5070228;28;20634;-64
2022/04/13 08:22:04;;;;;;;7.80;5.20;;;15.30;99.90;;;;;;5070133;28;20164;-65
2022/04/13 08:24:30;;;;;;;11.98;5.03;;;15.30;99.90;;;;;;5070153;28;20658;-64
2022/04/13 08:26:58;;;;;;;11.20;5.53;;;15.40;99.90;;;;;;5070120;28;20169;-64
2022/04/13 08:29:25;;;;;;;10.40;5.05;;;15.50;99.90;;;;;;5070002;28;20212;-64
2022/04/13 08:31:50;;;;;;;9.95;4.90;;;15.60;99.90;;;;;;5070141;28;20248;-64
2022/04/13 08:34:16;;;;;;;9.50;5.45;;;15.60;99.90;;;;;;5069950;28;20578;-65
2022/04/13 08:36:42;;;;;;;7.95;4.93;;;15.60;99.90;;;;;;5069883;28;20164;-64
2022/04/13 08:39:14;;;;;;;12.32;4.93;;;15.80;99.90;;;;;;5069792;28;20253;-65
2022/04/13 08:41:56;;;;;;;12.02;4.45;;;15.80;99.90;;;;;;5070127;28;20169;-65
2022/04/13 08:44:34;;;;;;;13.38;5.72;;;15.80;99.90;;;;;;5070295;28;20172;-65
2022/04/13 08:47:07;;;;;;;11.02;4.68;;;15.90;99.90;;;;;;5069689;28;20317;-65
2022/04/13 08:49:34;;;;;;;10.20;4.40;;;16.00;99.90;;;;;;5068340;28;20537;-64
2022/04/13 08:52:03;;;;;;;7.75;4.05;;;16.20;99.90;;;;;;5069523;28;20172;-65
2022/04/13 08:54:32;;;;;;;4.10;3.72;;;16.20;99.90;;;;;;5069502;28;20173;-64
2022/04/13 08:56:57;;;;;;;8.75;4.80;;;16.30;99.90;;;;;;5069317;28;20808;-64
2022/04/13 08:59:48;;;;;;;6.85;3.75;;;16.40;99.90;;;;;;5068789;28;20311;-64
2022/04/13 09:02:39;;;;;;;11.57;4.63;;;16.40;99.90;;;;;;5069354;28;20519;-64
2022/04/13 09:05:12;;;;;;;5.32;4.03;;;16.60;99.90;;;;;;5069247;28;20168;-64
2022/04/13 09:07:39;;;;;;;9.38;4.15;;;16.60;99.90;;;;;;5069245;28;20200;-64
2022/04/13 09:10:10;;;;;;;14.23;4.40;;;16.70;99.90;;;;;;5063604;28;20521;-64
2022/04/13 09:12:36;;;;;;;11.57;4.68;;;16.80;99.90;;;;;;5056030;28;20169;-64
2022/04/13 09:15:04;;;;;;;8.02;4.03;;;16.80;99.90;;;;;;5055951;28;20179;-64
2022/04/13 09:17:30;;;;;;;5.82;2.92;;;16.80;99.90;;;;;;5055857;28;20230;-64
2022/04/13 09:19:57;;;;;;;3.20;2.65;;;16.80;99.90;;;;;;5055852;28;20201;-64
2022/04/13 09:22:22;;;;;;;6.10;2.47;;;16.90;99.90;;;;;;5055882;28;20172;-64
2022/04/13 09:24:49;;;;;;;10.95;2.85;;;16.90;99.90;;;;;;5054501;28;20165;-64
2022/04/13 09:27:16;;;;;;;6.93;3.60;;;16.90;99.90;;;;;;5055754;28;20171;-64
2022/04/13 09:29:42;;;;;;;7.97;4.35;;;17.00;99.90;;;;;;5055742;28;20569;-64
2022/04/13 09:32:08;;;;;;;6.85;4.25;;;17.10;99.90;;;;;;5055562;28;20261;-64
2022/04/13 09:34:34;;;;;;;11.13;4.82;;;17.10;99.90;;;;;;5055574;28;20197;-64
2022/04/13 09:37:00;;;;;;;8.30;4.30;;;17.10;99.90;;;;;;5055564;28;20247;-64
2022/04/13 09:39:26;;;;;;;8.93;4.78;;;17.20;99.90;;;;;;5055442;28;20262;-64
2022/04/13 09:41:52;;;;;;;13.40;4.40;;;17.20;99.90;;;;;;5054167;28;20196;-64
2022/04/13 09:44:18;;;;;;;13.45;4.60;;;17.40;99.90;;;;;;5055469;28;20196;-64
2022/04/13 09:46:44;;;;;;;11.70;4.97;;;17.50;99.90;;;;;;5053982;28;20193;-64
2022/04/13 09:49:18;;;;;;;9.63;4.60;;;17.60;99.90;;;;;;5055330;28;20165;-64
2022/04/13 09:51:48;;;;;;;10.63;5.22;;;17.70;99.90;;;;;;5055188;28;20215;-64
2022/04/13 09:54:14;;;;;;;8.90;4.63;;;17.90;99.90;;;;;;5055252;28;20169;-64
2022/04/13 09:56:46;;;;;;;8.18;4.22;;;18.00;99.90;;;;;;5055189;28;20291;-64
2022/04/13 09:59:23;;;;;;;8.40;4.32;;;17.50;99.90;;;;;;5053601;28;20224;-64
2022/04/13 10:01:49;;;;;;;7.00;3.90;;;18.30;99.90;;;;;;5055080;28;20218;-64
2022/04/13 10:04:36;;;;;;;8.32;4.03;;;18.50;99.90;;;;;;5054992;28;20514;-64
2022/04/13 10:07:15;;;;;;;9.20;4.43;;;18.70;99.90;;;;;;5054954;28;20169;-64
2022/04/13 10:09:41;;;;;;;12.30;4.45;;;18.90;99.90;;;;;;5054974;28;20218;-64
2022/04/13 10:12:09;;;;;;;9.43;4.18;;;19.10;99.90;;;;;;5054824;28;20176;-64
2022/04/13 10:14:34;;;;;;;8.50;4.70;;;19.10;99.90;;;;;;5054776;28;20181;-65
2022/04/13 10:17:12;;;;;;;12.23;4.53;;;19.10;99.90;;;;;;5054777;28;20199;-64
2022/04/13 10:19:39;;;;;;;8.80;4.38;;;19.20;99.90;;;;;;5054658;28;20250;-64
2022/04/13 10:22:05;;;;;;;8.32;4.07;;;19.20;99.90;;;;;;5053676;28;20208;-64
2022/04/13 10:24:33;;;;;;;10.52;4.55;;;19.30;99.90;;;;;;5054684;28;20179;-64
2022/04/13 10:27:10;;;;;;;15.05;3.70;;;19.20;99.90;;;;;;5054599;28;20218;-65
2022/04/13 10:29:41;;;;;;;10.82;4.28;;;19.20;99.90;;;;;;5054583;28;20251;-64
2022/04/13 10:32:09;;;;;;;8.20;3.72;;;19.10;99.90;;;;;;5054571;28;20172;-64
2022/04/13 10:34:55;;;;;;;6.05;3.53;;;19.10;99.90;;;;;;5053169;28;20222;-64
2022/04/13 10:37:23;;;;;;;8.13;3.50;;;19.00;99.90;;;;;;5054149;28;20218;-64
2022/04/13 10:39:49;;;;;;;7.82;3.40;;;19.00;99.90;;;;;;5054260;28;20185;-64
2022/04/13 10:42:19;;;;;;;11.98;3.33;;;18.90;99.90;;;;;;5054276;28;20221;-64
2022/04/13 10:44:54;;;;;;;4.50;2.53;;;18.90;99.90;;;;;;5054203;28;20193;-64
2022/04/13 10:47:36;;;;;;;12.73;3.08;;;18.80;99.90;;;;;;5054184;28;20161;-64
2022/04/13 10:50:03;;;;;;;8.48;3.85;;;18.80;99.90;;;;;;5054122;28;20173;-64
2022/04/13 10:53:14;;;;;;;11.63;4.45;;;18.90;99.90;;;;;;5054137;28;20630;-64
2022/04/13 10:55:41;;;;;;;10.32;3.92;;;18.90;99.90;;;;;;5054063;28;20176;-64
2022/04/13 10:58:32;;;;;;;9.57;3.42;;;18.80;99.90;;;;;;5052448;28;20235;-64
2022/04/13 11:01:04;;;;;;;9.38;3.10;;;18.80;99.90;;;;;;5053992;28;20173;-64
2022/04/13 11:03:34;;;;;;;12.23;3.83;;;18.60;99.90;;;;;;5053942;28;20218;-64
2022/04/13 11:06:02;;;;;;;5.85;3.42;;;18.60;99.90;;;;;;5053875;28;20618;-64
2022/04/13 11:08:51;;;;;;;5.60;3.67;;;18.70;99.90;;;;;;5053837;28;20176;-64
2022/04/13 11:11:26;;;;;;;10.20;3.33;;;18.70;99.90;;;;;;5053821;28;20498;-64
2022/04/13 11:13:52;;;;;;;11.60;4.38;;;18.90;99.90;;;;;;5053754;28;20628;-64
2022/04/13 11:16:19;;;;;;;10.90;4.10;;;19.00;99.90;;;;;;5053699;28;20172;-64
2022/04/13 11:19:06;;;;;;;8.63;3.67;;;19.10;99.90;;;;;;5053546;28;20184;-65
2022/04/13 11:21:34;;;;;;;9.25;3.08;;;19.20;99.90;;;;;;5053582;28;20177;-64
2022/04/13 11:24:00;;;;;;;10.40;3.38;;;19.10;99.90;;;;;;5053523;28;20173;-64
2022/04/13 11:26:46;;;;;;;10.00;3.58;;;19.20;99.90;;;;;;5053860;28;20171;-64
2022/04/13 11:29:17;;;;;;;4.78;3.00;;;19.30;99.90;;;;;;5053256;28;20178;-64
2022/04/13 11:32:02;;;;;;;5.13;2.90;;;19.50;99.90;;;;;;5053209;28;20183;-64
2022/04/13 11:34:35;;;;;;;5.32;3.28;;;19.50;99.90;;;;;;5053219;28;20172;-64
2022/04/13 11:37:03;;;;;;;8.00;3.25;;;19.60;99.90;;;;;;5053383;28;20177;-64
2022/04/13 11:39:50;;;;;;;4.53;3.10;;;19.70;99.90;;;;;;5051984;28;20203;-64
2022/04/13 11:42:19;;;;;;;12.38;3.08;;;20.00;99.90;;;;;;5053266;28;20193;-64
2022/04/13 11:44:54;;;;;;;5.65;3.13;;;20.30;99.90;;;;;;5053157;28;20223;-64
2022/04/13 11:47:19;;;;;;;4.45;3.25;;;20.50;99.90;;;;;;5053266;28;20171;-64
2022/04/13 11:49:58;;;;;;;12.73;4.22;;;20.40;99.90;;;;;;5053221;28;20531;-64
2022/04/13 11:52:43;;;;;;;7.30;3.60;;;20.30;99.90;;;;;;5053162;28;20172;-64
2022/04/13 11:55:25;;;;;;;10.25;2.90;;;20.10;99.90;;;;;;5051857;28;20601;-64
2022/04/13 11:58:04;;;;;;;6.35;2.90;;;20.20;99.90;;;;;;5052896;28;20165;-64
2022/04/13 12:00:40;;;;;;;11.32;3.33;;;20.10;99.90;;;;;;5053190;28;20230;-64
2022/04/13 12:03:09;;;;;;;11.63;3.55;;;20.10;99.90;;;;;;5053113;28;20625;-64
2022/04/13 12:05:38;;;;;;;8.70;2.90;;;20.20;99.90;;;;;;5053155;28;20195;-64
2022/04/13 12:08:12;;;;;;;7.85;3.47;;;20.00;99.90;;;;;;5053006;28;20557;-64
2022/04/13 12:10:43;;;;;;;8.63;3.63;;;19.90;99.90;;;;;;5053012;28;20226;-64
2022/04/13 12:13:09;;;;;;;6.70;3.13;;;19.90;99.90;;;;;;5053053;28;20638;-65
2022/04/13 12:15:45;;;;;;;7.82;3.03;;;19.80;99.90;;;;;;5052956;28;20176;-64
2022/04/13 12:18:11;;;;;;;7.05;2.90;;;19.80;99.90;;;;;;5051568;28;20200;-64
2022/04/13 12:20:37;;;;;;;5.70;2.65;;;19.90;99.90;;;;;;5052925;28;20226;-64
2022/04/13 12:23:25;;;;;;;4.60;3.30;;;19.80;99.90;;;;;;5052926;28;20171;-64
2022/04/13 12:25:53;;;;;;;3.85;3.45;;;19.80;99.90;;;;;;5052791;28;20161;-64
2022/04/13 12:28:22;;;;;;;10.23;4.40;;;19.90;99.90;;;;;;5052842;28;20169;-64
2022/04/13 12:30:59;;;;;;;11.40;3.22;;;19.90;99.90;;;;;;5052885;28;20168;-64
2022/04/13 12:33:26;;;;;;;6.68;3.03;;;19.80;99.90;;;;;;5052804;28;20226;-64
2022/04/13 12:36:00;;;;;;;6.22;3.40;;;19.90;99.90;;;;;;5052811;28;20528;-64
2022/04/13 12:38:29;;;;;;;10.23;3.88;;;20.10;99.90;;;;;;5052647;28;20224;-64
2022/04/13 12:41:12;;;;;;;6.78;3.92;;;20.10;99.90;;;;;;5052732;28;20248;-64
2022/04/13 12:43:41;;;;;;;12.90;4.00;;;20.10;99.90;;;;;;5052317;28;20160;-64
2022/04/13 12:46:12;;;;;;;8.10;4.35;;;19.70;99.90;;;;;;5054438;28;20181;-64
2022/04/13 12:48:39;;;;;;;13.90;5.30;;;19.70;99.90;;;;;;5056243;28;20165;-64
2022/04/13 12:51:05;;;;;;;9.20;3.88;;;20.20;99.90;;;;;;5056265;28;20177;-64
2022/04/13 12:53:46;;;;;;;10.60;4.65;;;20.30;99.90;;;;;;5056262;28;20251;-64
2022/04/13 12:56:18;;;;;;;10.80;5.05;;;20.60;99.90;;;;;;5056362;28;20191;-64
2022/04/13 12:58:44;;;;;;;9.52;4.85;;;20.60;99.90;;;;;;5056035;28;20302;-64
2022/04/13 13:01:11;;;;;;;8.38;5.00;;;20.20;99.90;;;;;;5056251;28;20165;-64
2022/04/13 13:03:40;;;;;;;16.02;4.75;;;20.20;99.90;;;;;;5056234;28;20184;-64
2022/04/13 13:06:15;;;;;;;13.20;4.38;;;20.20;99.90;;;;;;5056167;28;20160;-64
2022/04/13 13:08:58;;;;;;;9.43;4.68;;;20.40;99.90;;;;;;5056103;28;20160;-64
2022/04/13 13:11:29;;;;;;;7.32;4.47;;;20.60;99.90;;;;;;5056128;28;20168;-64
2022/04/13 13:14:11;;;;;;;7.78;5.18;;;20.80;99.90;;;;;;5056030;28;20218;-64
2022/04/13 13:16:40;;;;;;;7.88;4.70;;;20.80;99.90;;;;;;5055963;28;20168;-64
2022/04/13 13:19:28;;;;;;;11.00;5.72;;;20.60;99.90;;;;;;5055835;28;20220;-64
2022/04/13 13:22:14;;;;;;;12.57;5.32;;;20.60;99.90;;;;;;5055948;28;20539;-64
2022/04/13 13:25:02;;;;;;;15.52;5.63;;;20.40;99.90;;;;;;5055859;28;20621;-64
2022/04/13 13:27:39;;;;;;;13.77;6.28;;;20.20;99.90;;;;;;5055822;28;20168;-64
2022/04/13 13:30:11;;;;;;;11.63;5.18;;;20.30;99.90;;;;;;5055769;28;20179;-64
2022/04/13 13:32:39;;;;;;;11.50;5.10;;;20.50;99.90;;;;;;5055629;28;20207;-64
2022/04/13 13:35:18;;;;;;;11.25;4.35;;;20.50;99.90;;;;;;5055647;28;20184;-64
2022/04/13 13:37:48;;;;;;;16.80;4.85;;;20.30;99.90;;;;;;5055619;28;20221;-64
2022/04/13 13:40:28;;;;;;;12.18;5.05;;;20.00;99.90;;;;;;5055450;28;20196;-64
2022/04/13 13:42:54;;;;;;;7.82;4.35;;;19.90;99.90;;;;;;5055421;28;20168;-64
2022/04/13 13:45:20;;;;;;;10.52;4.30;;;19.80;99.90;;;;;;5055378;28;20189;-64
2022/04/13 13:47:46;;;;;;;7.60;4.68;;;19.60;99.90;;;;;;5054075;28;20172;-64
2022/04/13 13:50:12;;;;;;;7.90;3.80;;;19.50;99.90;;;;;;5055326;28;20168;-64
2022/04/13 13:52:37;;;;;;;11.23;3.28;;;19.50;99.90;;;;;;5055270;28;20688;-64
2022/04/13 13:55:04;;;;;;;7.80;3.88;;;19.60;99.90;;;;;;5055296;28;20168;-64
2022/04/13 13:57:30;;;;;;;7.40;3.35;;;19.70;99.90;;;;;;5055061;28;20568;-64
2022/04/13 13:59:55;;;;;;;11.32;3.78;;;19.70;99.90;;;;;;5054971;28;20302;-64
2022/04/13 14:02:21;;;;;;;8.88;4.13;;;19.60;99.90;;;;;;5055122;28;20646;-64
2022/04/13 14:04:46;;;;;;;7.40;3.97;;;19.60;99.90;;;;;;5055073;28;20173;-64
2022/04/13 14:07:12;;;;;;;7.97;3.95;;;19.50;99.90;;;;;;5054999;28;20194;-64
2022/04/13 14:09:38;;;;;;;5.78;3.83;;;19.60;99.90;;;;;;5054986;28;20180;-64
2022/04/13 14:12:04;;;;;;;7.07;4.50;;;19.60;99.90;;;;;;5053603;28;20172;-64
2022/04/13 14:14:29;;;;;;;8.68;4.30;;;19.70;99.90;;;;;;5054849;28;20176;-64
2022/04/13 14:16:55;;;;;;;6.90;3.92;;;19.70;99.90;;;;;;5054856;28;20168;-64
2022/04/13 14:19:21;;;;;;;8.30;4.80;;;19.60;99.90;;;;;;5054703;28;20192;-64
2022/04/13 14:21:47;;;;;;;5.22;3.72;;;19.50;99.90;;;;;;5054797;28;20168;-64
2022/04/13 14:24:15;;;;;;;7.70;4.15;;;19.40;99.90;;;;;;5054653;28;20171;-64
2022/04/13 14:26:41;;;;;;;6.45;5.13;;;19.40;99.90;;;;;;5054584;28;20172;-64
2022/04/13 14:29:07;;;;;;;6.28;3.38;;;19.30;99.90;;;;;;5054611;28;20519;-64
2022/04/13 14:31:33;;;;;;;4.57;4.15;;;19.20;99.90;;;;;;5054514;28;20177;-64
2022/04/13 14:33:59;;;;;;;7.53;4.07;;;19.10;99.90;;;;;;5054487;28;20180;-64
2022/04/13 14:36:25;;;;;;;6.57;4.22;;;18.90;99.90;;;;;;5054436;28;20168;-64
2022/04/13 14:38:51;;;;;;;8.07;4.68;;;18.80;99.90;;;;;;5054323;28;20219;-64
2022/04/13 14:41:17;;;;;;;4.13;3.78;;;18.70;99.90;;;;;;5054340;28;20631;-64
2022/04/13 14:43:43;;;;;;;10.60;4.70;;;18.60;99.90;;;;;;5054312;28;20196;-64
2022/04/13 14:46:08;;;;;;;11.10;4.53;;;18.70;99.90;;;;;;5054204;28;20191;-64
2022/04/13 14:48:34;;;;;;;16.00;5.03;;;18.70;99.90;;;;;;5054203;28;20248;-64
2022/04/13 14:51:00;;;;;;;8.52;5.45;;;18.70;99.90;;;;;;5054132;28;20172;-64
2022/04/13 14:53:25;;;;;;;6.32;4.63;;;18.80;99.90;;;;;;5054121;28;20172;-64
2022/04/13 14:55:51;;;;;;;7.70;6.15;;;18.70;99.90;;;;;;5053994;28;20251;-64
2022/04/13 14:58:17;;;;;;;14.20;7.05;;;18.70;99.90;;;;;;5053797;28;20231;-64
2022/04/13 15:00:43;;;;;;;11.65;6.40;;;18.70;99.90;;;;;;5053926;28;20218;-64
2022/04/13 15:03:10;;;;;;;7.53;6.05;;;18.60;99.90;;;;;;5053939;28;20177;-64
2022/04/13 15:05:36;;;;;;;8.82;5.72;;;18.50;99.90;;;;;;5053901;28;20167;-64
2022/04/13 15:08:02;;;;;;;8.07;7.43;;;18.40;99.90;;;;;;5053341;28;20161;-64
2022/04/13 15:10:27;;;;;;;9.52;8.05;;;18.30;99.90;;;;;;5053765;28;20168;-64
2022/04/13 15:12:53;;;;;;;13.20;7.13;;;18.20;99.90;;;;;;5053963;28;20214;-64
2022/04/13 15:15:18;;;;;;;9.70;7.55;;;18.20;99.90;;;;;;5053711;28;20226;-64
2022/04/13 15:17:44;;;;;;;17.95;7.78;;;18.20;99.90;;;;;;5053676;28;20177;-64
2022/04/13 15:20:13;;;;;;;15.75;7.68;;;18.30;99.90;;;;;;5053710;28;20195;-64
2022/04/13 15:22:39;;;;;;;17.23;7.00;;;18.40;99.90;;;;;;5053658;28;20176;-64
2022/04/13 15:25:10;;;;;;;11.50;7.60;;;18.50;99.90;;;;;;5053557;28;20161;-64
2022/04/13 15:27:42;;;;;;;8.43;7.28;;;18.50;99.90;;;;;;5053545;28;20173;-64
2022/04/13 15:30:19;;;;;;;16.30;7.90;;;18.60;99.90;;;;;;5053878;28;20164;-65
2022/04/13 15:32:47;;;;;;;11.90;6.40;;;18.60;99.90;;;;;;5053321;28;20165;-64
2022/04/13 15:35:13;;;;;;;11.88;7.20;;;18.60;99.90;;;;;;5053410;28;20169;-64
2022/04/13 15:37:39;;;;;;;7.57;6.68;;;18.50;99.90;;;;;;5053281;28;20369;-64
2022/04/13 15:40:05;;;;;;;6.97;6.00;;;18.50;99.90;;;;;;5051979;28;20283;-64
2022/04/13 15:42:32;;;;;;;10.38;6.95;;;18.40;99.90;;;;;;5053351;28;20206;-64
2022/04/13 15:44:58;;;;;;;7.15;6.43;;;18.40;99.90;;;;;;5053212;28;20301;-64
2022/04/13 15:47:24;;;;;;;15.20;6.88;;;18.30;99.90;;;;;;5053213;28;20165;-64
2022/04/13 15:49:50;;;;;;;12.80;6.70;;;18.20;99.90;;;;;;5053130;28;20212;-65
2022/04/13 15:52:17;;;;;;;8.35;6.47;;;18.10;99.90;;;;;;5053097;28;20161;-65
2022/04/13 15:54:43;;;;;;;11.02;7.85;;;18.10;99.90;;;;;;5053146;28;20191;-64
2022/04/13 15:57:09;;;;;;;11.95;8.32;;;18.00;99.90;;;;;;5053136;28;20180;-64
2022/04/13 15:59:34;;;;;;;14.50;10.85;;;17.90;99.90;;;;;;5052877;28;20216;-65
2022/04/13 16:02:00;;;;;;;14.85;9.55;;;17.70;99.90;;;;;;5053151;28;20172;-64
2022/04/13 16:04:26;;;;;;;17.23;11.80;;;17.60;99.90;;;;;;5053107;28;20529;-64
2022/04/13 16:06:52;;;;;;;22.20;12.15;;;17.50;99.90;;;;;;5053010;28;20176;-64
2022/04/13 16:09:18;;;;;;;20.77;13.13;;;17.40;99.90;;;;;;5053011;28;20536;-64
2022/04/13 16:11:44;;;;;;;17.42;12.45;;;17.30;99.90;;;;;;5053044;28;20169;-64
2022/04/13 16:14:09;;;;;;;21.00;12.82;;;17.20;99.90;;;;;;5052967;28;20176;-64
2022/04/13 16:16:35;;;;;;;26.05;12.63;;;17.10;99.90;;;;;;5052992;28;20675;-64
2022/04/13 16:19:00;;;;;;;17.60;12.70;;;17.10;99.90;;;;;;5053244;28;20201;-64
2022/04/13 16:21:26;;;;;;;18.80;12.30;;;17.10;99.90;;;;;;5056345;28;20227;-64
2022/04/13 16:23:53;;;;;;;17.60;13.18;;;17.10;99.90;;;;;;5056166;28;20504;-64
2022/04/13 16:26:19;;;;;;;21.23;13.10;;;17.10;99.90;;;;;;5056184;28;20252;-64
2022/04/13 16:28:46;;;;;;;19.98;13.88;;;17.00;99.90;;;;;;5056336;28;20161;-64
2022/04/13 16:31:12;;;;;;;26.58;15.50;;;16.90;99.90;;;;;;5056800;28;20523;-64
2022/04/13 16:33:38;;;;;;;18.00;15.05;;;17.00;99.90;;;;;;5056777;28;20173;-64
2022/04/13 16:36:04;;;;;;;28.05;17.02;;;16.90;99.90;;;;;;5056670;28;20173;-64
2022/04/13 16:38:32;;;;;;;24.00;16.20;;;16.90;99.90;;;;;;5055418;28;20570;-64
2022/04/13 16:40:58;;;;;;;21.95;16.10;;;16.90;99.90;;;;;;5057041;28;20199;-64
2022/04/13 16:43:24;;;;;;;21.05;15.73;;;16.80;99.90;;;;;;5056829;28;20189;-64
2022/04/13 16:45:50;;;;;;;23.60;16.15;;;16.80;99.90;;;;;;5056393;28;20212;-64
2022/04/13 16:48:16;;;;;;;23.60;15.10;;;16.80;99.90;;;;;;5056772;28;20211;-64
2022/04/13 16:50:41;;;;;;;27.45;16.75;;;16.80;99.90;;;;;;5056941;28;20169;-64
2022/04/13 16:53:12;;;;;;;25.58;15.02;;;16.80;99.90;;;;;;5057036;28;20192;-64
2022/04/13 16:55:39;;;;;;;16.25;13.38;;;16.80;99.90;;;;;;5056919;28;20165;-64
2022/04/13 16:58:04;;;;;;;25.05;14.23;;;16.70;99.90;;;;;;5056420;28;20368;-64
2022/04/13 17:00:30;;;;;;;18.60;14.07;;;16.80;99.90;;;;;;5056774;28;20269;-64
2022/04/13 17:02:56;;;;;;;23.52;13.45;;;16.70;99.90;;;;;;5056679;28;20212;-64
2022/04/13 17:05:21;;;;;;;15.75;12.82;;;16.70;99.90;;;;;;5056438;28;20165;-64
2022/04/13 17:07:47;;;;;;;21.33;14.05;;;16.70;99.90;;;;;;5056577;28;20165;-64
2022/04/13 17:10:13;;;;;;;19.20;12.43;;;16.60;99.90;;;;;;5056527;28;20199;-64
2022/04/13 17:12:38;;;;;;;14.45;12.13;;;16.60;99.90;;;;;;5056259;28;20658;-64
2022/04/13 17:15:06;;;;;;;16.95;12.55;;;16.60;99.90;;;;;;5056362;28;20177;-64
2022/04/13 17:17:32;;;;;;;14.50;11.52;;;16.50;99.90;;;;;;5055255;28;20256;-64
2022/04/13 17:19:57;;;;;;;15.70;10.70;;;16.50;99.90;;;;;;5056069;28;20287;-64
2022/04/13 17:22:23;;;;;;;16.98;11.30;;;16.60;99.90;;;;;;5056264;28;20177;-64
2022/04/13 17:24:49;;;;;;;18.92;12.07;;;16.60;99.90;;;;;;5056260;28;20169;-64
2022/04/13 17:27:14;;;;;;;17.02;11.13;;;16.60;99.90;;;;;;5055101;28;20169;-64
2022/04/13 17:29:40;;;;;;;15.88;11.55;;;16.60;99.90;;;;;;5056068;28;20169;-64
2022/04/13 17:32:06;;;;;;;11.57;9.25;;;16.60;99.90;;;;;;5055467;28;20169;-64
2022/04/13 17:34:32;;;;;;;10.80;9.00;;;16.60;99.90;;;;;;5056260;28;20173;-64
2022/04/13 17:36:59;;;;;;;16.45;10.27;;;16.70;99.90;;;;;;5055938;28;20507;-64
2022/04/13 17:39:25;;;;;;;11.88;8.98;;;16.60;99.90;;;;;;5056063;28;20220;-64
2022/04/13 17:41:50;;;;;;;9.18;8.35;;;16.60;99.90;;;;;;5055741;28;20646;-64
2022/04/13 17:44:17;;;;;;;13.43;8.80;;;16.60;99.90;;;;;;5055878;28;20251;-64
2022/04/13 17:46:42;;;;;;;11.00;9.48;;;16.50;99.90;;;;;;5055628;28;20192;-64
2022/04/13 17:49:08;;;;;;;9.85;8.20;;;16.40;99.90;;;;;;5055801;28;20177;-64
2022/04/13 17:51:34;;;;;;;18.08;9.18;;;16.40;99.90;;;;;;5055735;28;20188;-64
2022/04/13 17:54:00;;;;;;;11.23;9.68;;;16.30;99.90;;;;;;5055707;28;20173;-64
2022/04/13 17:56:25;;;;;;;13.50;9.30;;;16.20;99.90;;;;;;5055746;28;20222;-64
2022/04/13 17:58:51;;;;;;;11.18;9.90;;;16.20;99.90;;;;;;5055312;28;20311;-64
2022/04/13 18:01:21;;;;;;;14.25;8.43;;;16.10;99.90;;;;;;5055511;28;20165;-64
2022/04/13 18:03:47;;;;;;;19.20;8.98;;;16.10;99.90;;;;;;5055457;28;20165;-64
2022/04/13 18:06:14;;;;;;;11.43;8.35;;;15.90;99.90;;;;;;5054187;28;20256;-64
2022/04/13 18:08:40;;;;;;;13.60;8.18;;;15.90;99.90;;;;;;5055285;28;20172;-64
